Terminal Aerodrome Forecast
Issued by NWS

Current Version | Previous Version | Text Only | Print | Product List | Glossary On
Versions: 1 2 3 4 5 6 7 8 9 10 11 12 13 14 15 16 17 18 19 20 21 22 23
000
FTUS43 KMQT 302300
TAFCMX
TAF
KCMX 302326Z 3100/3124 01009KT P6SM SCT025 SCT100
     FM310800 VRB03KT 2SM BR SCT002
     FM311000 VRB03KT 1/4SM FG VV002
     FM311300 09005KT 2SM BR SCT003
     FM311400 11009KT P6SM SCT070=

USA.gov is the U.S. government's official web portal to all federal, state and local government web resources and services.